createdAt,value
2023-04-19T00:02:02.697Z,100890.16
2023-04-19T00:05:05.363Z,100882.50
2023-04-19T00:08:08.074Z,100887.09
2023-04-19T00:11:10.709Z,100884.13
2023-04-19T00:14:12.951Z,100880.06
2023-04-19T00:17:15.175Z,100876.25
2023-04-19T00:20:17.316Z,100869.59
2023-04-19T00:23:19.543Z,100873.91
2023-04-19T00:26:22.340Z,100888.72
2023-04-19T00:29:27.529Z,100890.69
2023-04-19T00:32:30.558Z,100873.94
2023-04-19T00:35:33.742Z,100880.38
2023-04-19T00:38:35.864Z,100871.16
2023-04-19T00:41:38.117Z,100876.38
2023-04-19T00:44:42.864Z,100878.88
2023-04-19T00:47:45.242Z,100872.81
2023-04-19T00:50:47.446Z,100873.19
2023-04-19T00:53:49.998Z,100870.22
2023-04-19T00:56:54.081Z,100867.56
2023-04-19T00:59:57.422Z,100854.34
2023-04-19T01:02:59.780Z,100858.28
2023-04-19T01:06:02.720Z,100858.44
2023-04-19T01:09:05.192Z,100849.56
2023-04-19T01:12:07.436Z,100844.88
2023-04-19T01:15:10.813Z,100851.72
2023-04-19T01:18:14.478Z,100849.72
2023-04-19T01:21:18.795Z,100854.03
2023-04-19T01:24:20.962Z,100847.75
2023-04-19T01:27:25.300Z,100844.50
2023-04-19T01:30:27.410Z,100847.50
2023-04-19T01:33:30.847Z,100835.50
2023-04-19T01:36:33.597Z,100832.53
2023-04-19T01:39:36.006Z,100838.72
2023-04-19T01:42:38.122Z,100823.50
2023-04-19T01:45:40.607Z,100822.28
2023-04-19T01:48:42.700Z,100818.78
2023-04-19T01:51:44.934Z,100817.88
2023-04-19T01:54:47.042Z,100818.09
2023-04-19T01:57:54.574Z,100812.88
2023-04-19T02:00:59.642Z,100819.66
2023-04-19T02:04:03.849Z,100813.03
2023-04-19T02:07:09.051Z,100823.88
2023-04-19T02:10:12.533Z,100813.31
2023-04-19T02:13:16.439Z,100806.28
2023-04-19T02:16:20.403Z,100810.03
2023-04-19T02:19:22.659Z,100811.63
2023-04-19T02:22:25.168Z,100802.41
2023-04-19T02:25:27.617Z,100803.78
2023-04-19T02:28:31.066Z,100804.31
2023-04-19T02:31:33.388Z,100804.00
2023-04-19T02:34:36.204Z,100796.53
2023-04-19T02:37:38.333Z,100800.72
2023-04-19T02:40:41.853Z,100795.69
2023-04-19T02:43:44.006Z,100797.53
2023-04-19T02:46:54.666Z,100802.41
2023-04-19T02:49:56.919Z,100801.16
2023-04-19T02:52:59.411Z,100805.38
2023-04-19T02:56:04.198Z,100806.56
2023-04-19T02:59:06.777Z,100801.56
2023-04-19T03:02:09.513Z,100799.31
2023-04-19T03:05:12.188Z,100799.41
2023-04-19T03:08:14.392Z,100808.53
2023-04-19T03:11:20.552Z,100806.88
2023-04-19T03:14:22.988Z,100806.53
2023-04-19T03:17:25.920Z,100802.78
2023-04-19T03:20:29.203Z,100799.03
2023-04-19T03:23:32.276Z,100799.25
2023-04-19T03:26:38.084Z,100796.06
2023-04-19T03:29:40.629Z,100794.66
2023-04-19T03:32:45.357Z,100791.41
2023-04-19T03:35:48.382Z,100797.75
2023-04-19T03:38:52.027Z,100800.72
2023-04-19T03:41:57.426Z,100790.06
2023-04-19T03:45:11.799Z,100788.03
2023-04-19T03:48:18.944Z,100791.56
2023-04-19T03:51:21.092Z,100788.47
2023-04-19T03:54:23.258Z,100787.31
2023-04-19T03:57:25.823Z,100784.66
2023-04-19T04:00:29.331Z,100783.81
2023-04-19T04:03:37.597Z,100781.94
2023-04-19T04:06:40.108Z,100784.00
2023-04-19T04:09:42.424Z,100783.38
2023-04-19T04:12:44.652Z,100784.13
2023-04-19T04:15:54.608Z,100783.50
2023-04-19T04:18:57.952Z,100778.97
2023-04-19T04:22:03.157Z,100782.31
2023-04-19T04:25:08.034Z,100782.25
2023-04-19T04:28:14.406Z,100779.00
2023-04-19T04:31:19.033Z,100767.69
2023-04-19T04:34:22.976Z,100778.59
2023-04-19T04:37:35.862Z,100773.88
2023-04-19T04:40:38.494Z,100769.00
2023-04-19T04:43:43.756Z,100764.09
2023-04-19T04:46:46.779Z,100762.22
2023-04-19T04:49:54.671Z,100769.06
2023-04-19T04:52:56.861Z,100770.38
2023-04-19T04:56:08.064Z,100764.22
2023-04-19T04:59:11.536Z,100765.28
2023-04-19T05:02:17.488Z,100759.50
2023-04-19T05:05:20.839Z,100765.34
2023-04-19T05:08:29.782Z,100770.50
2023-04-19T05:11:43.498Z,100774.06
2023-04-19T05:14:45.804Z,100763.41
2023-04-19T05:17:56.209Z,100753.16
2023-04-19T05:21:00.164Z,100754.69
2023-04-19T05:24:07.229Z,100767.53
2023-04-19T05:27:10.528Z,100758.69
2023-04-19T05:30:12.960Z,100759.44
2023-04-19T05:33:18.607Z,100757.16
2023-04-19T05:36:21.197Z,100755.88
2023-04-19T05:39:23.329Z,100770.69
2023-04-19T05:42:26.855Z,100776.66
2023-04-19T05:45:28.989Z,100763.88
2023-04-19T05:48:31.188Z,100756.31
2023-04-19T05:51:59.472Z,100759.84
2023-04-19T05:55:19.669Z,100762.53
2023-04-19T05:58:21.888Z,100759.06
2023-04-19T06:01:24.541Z,100761.75
2023-04-19T06:04:27.750Z,100757.59
2023-04-19T06:07:36.166Z,100768.44
2023-04-19T06:10:53.162Z,100762.16
2023-04-19T06:13:56.671Z,100767.78
2023-04-19T06:16:59.157Z,100754.97
2023-04-19T06:20:01.697Z,100753.31
2023-04-19T06:23:04.595Z,100761.28
2023-04-19T06:26:08.007Z,100759.78
2023-04-19T06:29:10.422Z,100749.53
2023-04-19T06:32:13.005Z,100747.59
2023-04-19T06:35:15.858Z,100737.75
2023-04-19T06:38:18.100Z,100733.53
2023-04-19T06:41:20.819Z,100736.69
2023-04-19T06:44:23.211Z,100741.22
2023-04-19T06:47:25.989Z,100730.03
2023-04-19T06:50:29.038Z,100738.38
2023-04-19T06:53:32.080Z,100741.72
2023-04-19T06:56:50.892Z,100749.47
2023-04-19T06:59:55.187Z,100746.28
2023-04-19T07:02:57.372Z,100762.31
2023-04-19T07:06:03.506Z,100762.34
2023-04-19T07:09:08.647Z,100769.91
2023-04-19T07:12:11.058Z,100768.66
2023-04-19T07:15:14.071Z,100760.50
2023-04-19T07:18:18.118Z,100760.31
2023-04-19T07:21:22.140Z,100761.38
2023-04-19T07:24:24.240Z,100759.88
2023-04-19T07:27:26.327Z,100772.88
2023-04-19T07:30:28.659Z,100765.72
2023-04-19T07:33:32.562Z,100768.84
2023-04-19T07:36:37.545Z,100763.41
2023-04-19T07:39:40.286Z,100771.97
2023-04-19T07:42:45.227Z,100759.84
2023-04-19T07:45:50.336Z,100761.31
2023-04-19T07:48:52.858Z,100766.31
2023-04-19T07:51:54.988Z,100764.25
2023-04-19T07:54:57.954Z,100770.94
2023-04-19T07:58:05.911Z,100767.59
2023-04-19T08:01:08.184Z,100762.59
2023-04-19T08:04:10.461Z,100760.25
2023-04-19T08:07:13.910Z,100766.50
2023-04-19T08:10:15.962Z,100767.09
2023-04-19T08:13:18.121Z,100766.22
2023-04-19T08:17:01.377Z,100757.84
2023-04-19T08:19:42.374Z,100766.16
2023-04-19T08:22:44.667Z,100768.03
2023-04-19T08:25:47.130Z,100763.25
2023-04-19T08:28:51.523Z,100761.16
2023-04-19T08:31:53.546Z,100769.13
2023-04-19T08:34:55.780Z,100759.50
2023-04-19T08:37:58.041Z,100766.56
2023-04-19T08:41:02.517Z,100773.44
2023-04-19T08:44:06.960Z,100765.31
2023-04-19T08:47:20.233Z,100759.84
2023-04-19T08:50:36.009Z,100758.84
2023-04-19T08:53:49.912Z,100750.28
2023-04-19T08:56:54.405Z,100755.34
2023-04-19T08:59:58.110Z,100752.13
2023-04-19T09:03:00.860Z,100755.31
2023-04-19T09:06:04.245Z,100753.03
2023-04-19T09:09:34.130Z,100763.50
2023-04-19T09:12:45.818Z,100753.81
2023-04-19T09:15:48.172Z,100754.84
2023-04-19T09:19:15.305Z,100749.38
2023-04-19T09:22:24.282Z,100755.97
2023-04-19T09:28:34.371Z,100762.84
2023-04-19T09:35:00.492Z,100756.81
2023-04-19T09:38:06.638Z,100764.53
2023-04-19T09:41:10.694Z,100753.03
2023-04-19T09:47:30.422Z,100765.31
2023-04-19T09:50:34.220Z,100760.72
2023-04-19T09:53:47.288Z,100756.13
2023-04-19T09:56:50.618Z,100763.84
2023-04-19T09:59:52.979Z,100753.81
2023-04-19T10:02:58.664Z,100760.53
2023-04-19T10:06:10.197Z,100758.00
2023-04-19T10:09:19.991Z,100760.03
2023-04-19T10:15:49.518Z,100757.31
2023-04-19T10:18:55.993Z,100755.88
2023-04-19T10:21:58.749Z,100751.03
2023-04-19T10:25:11.124Z,100766.28
2023-04-19T10:28:14.712Z,100760.25
2023-04-19T10:31:28.393Z,100752.50
2023-04-19T10:34:45.481Z,100755.78
2023-04-19T10:38:09.714Z,100767.13
2023-04-19T10:41:14.492Z,100765.41
2023-04-19T10:44:17.761Z,100770.81
2023-04-19T10:47:42.451Z,100774.13
2023-04-19T10:51:16.781Z,100773.69
2023-04-19T10:54:31.675Z,100775.16
2023-04-19T10:58:04.107Z,100785.41
2023-04-19T11:01:32.030Z,100781.47
2023-04-19T11:04:37.053Z,100783.03
2023-04-19T11:07:40.265Z,100787.69
2023-04-19T11:10:42.603Z,100783.31
2023-04-19T11:13:44.868Z,100782.25
2023-04-19T11:16:51.449Z,100776.44
2023-04-19T11:20:00.630Z,100781.84
2023-04-19T11:23:02.736Z,100771.81
2023-04-19T11:26:06.750Z,100767.41
2023-04-19T11:29:10.902Z,100775.16
2023-04-19T11:32:13.163Z,100765.75
2023-04-19T11:35:16.341Z,100770.78
2023-04-19T11:38:18.418Z,100769.72
2023-04-19T11:41:21.048Z,100766.16
2023-04-19T11:44:23.869Z,100759.47
2023-04-19T11:47:27.401Z,100763.66
2023-04-19T11:50:33.627Z,100773.91
2023-04-19T11:53:40.444Z,100751.72
2023-04-19T11:57:05.038Z,100754.66
2023-04-19T12:00:13.455Z,100751.72
2023-04-19T12:03:16.667Z,100755.69
2023-04-19T12:06:22.206Z,100756.13
2023-04-19T12:09:24.395Z,100742.31
2023-04-19T12:12:33.014Z,100746.69
2023-04-19T12:15:46.961Z,100750.06
2023-04-19T12:18:52.043Z,100748.16
2023-04-19T12:22:08.734Z,100752.78
2023-04-19T12:25:11.005Z,100747.97
2023-04-19T12:28:14.655Z,100749.81
2023-04-19T12:31:16.850Z,100736.66
2023-04-19T12:34:18.872Z,100741.47
2023-04-19T12:37:20.880Z,100738.97
2023-04-19T12:40:24.596Z,100729.53
2023-04-19T12:43:26.644Z,100721.19
2023-04-19T12:46:29.120Z,100729.13
2023-04-19T12:49:31.189Z,100731.44
2023-04-19T12:52:34.564Z,100722.44
2023-04-19T12:55:41.020Z,100730.19
2023-04-19T12:58:43.934Z,100716.59
2023-04-19T13:01:46.052Z,100715.75
2023-04-19T13:04:48.591Z,100720.97
2023-04-19T13:07:52.001Z,100718.47
2023-04-19T13:10:55.399Z,100719.09
2023-04-19T13:13:57.461Z,100712.38
2023-04-19T13:16:59.612Z,100716.59
2023-04-19T13:20:01.809Z,100715.13
2023-04-19T13:23:04.089Z,100714.72
2023-04-19T13:26:07.622Z,100709.03
2023-04-19T13:29:09.846Z,100702.78
2023-04-19T13:32:12.799Z,100707.56
2023-04-19T13:35:15.325Z,100708.16
2023-04-19T13:38:18.935Z,100701.06
2023-04-19T13:41:22.453Z,100694.16
2023-04-19T13:44:29.356Z,100698.56
2023-04-19T13:47:32.093Z,100701.50
2023-04-19T13:50:37.015Z,100689.59
2023-04-19T13:53:41.511Z,100696.50
2023-04-19T13:56:57.193Z,100693.97
2023-04-19T14:00:10.129Z,100700.06
2023-04-19T14:03:13.077Z,100689.41
2023-04-19T14:06:15.415Z,100696.72
2023-04-19T14:09:19.229Z,100689.59
2023-04-19T14:12:21.547Z,100690.84
2023-04-19T14:15:25.583Z,100683.75
2023-04-19T14:18:27.610Z,100689.59
2023-04-19T14:21:31.685Z,100688.94
2023-04-19T14:24:33.730Z,100680.75
2023-04-19T14:27:37.192Z,100683.28
2023-04-19T14:30:40.392Z,100687.88
2023-04-19T14:33:42.646Z,100675.53
2023-04-19T14:36:46.074Z,100676.75
2023-04-19T14:39:48.276Z,100678.06
2023-04-19T14:42:50.323Z,100663.19
2023-04-19T14:45:53.626Z,100676.38
2023-04-19T14:49:02.249Z,100657.53
2023-04-19T14:52:06.819Z,100666.97
2023-04-19T14:55:20.514Z,100670.28
2023-04-19T14:58:23.912Z,100666.09
2023-04-19T15:01:30.528Z,100662.06
2023-04-19T15:05:28.134Z,100660.50
2023-04-19T15:12:27.192Z,100661.78
2023-04-19T15:15:29.734Z,100658.59
2023-04-19T15:18:32.284Z,100655.09
2023-04-19T15:21:34.734Z,100656.06
2023-04-19T15:24:37.975Z,100654.09
2023-04-19T15:27:41.093Z,100652.38
2023-04-19T15:30:43.355Z,100665.94
2023-04-19T15:33:47.981Z,100667.88
2023-04-19T15:36:50.077Z,100657.50
2023-04-19T15:39:52.108Z,100659.75
2023-04-19T15:42:58.628Z,100656.00
2023-04-19T15:46:02.130Z,100654.16
2023-04-19T15:49:04.986Z,100654.66
2023-04-19T15:52:11.075Z,100660.56
2023-04-19T15:55:14.461Z,100652.06
2023-04-19T15:58:18.628Z,100645.00
2023-04-19T16:01:22.051Z,100641.47
2023-04-19T16:04:24.749Z,100651.97
2023-04-19T16:07:28.096Z,100639.69
2023-04-19T16:10:33.163Z,100628.81
2023-04-19T16:13:35.991Z,100644.09
2023-04-19T16:16:38.209Z,100633.44
2023-04-19T16:19:42.472Z,100637.84
2023-04-19T16:22:45.254Z,100639.72
2023-04-19T16:25:49.025Z,100641.38
2023-04-19T16:28:53.062Z,100644.16
2023-04-19T16:32:01.848Z,100629.06
2023-04-19T16:35:08.220Z,100625.53
2023-04-19T16:38:11.018Z,100626.78
2023-04-19T16:41:14.269Z,100611.13
2023-04-19T16:44:20.707Z,100615.16
2023-04-19T16:47:23.338Z,100619.53
2023-04-19T16:50:26.645Z,100631.66
2023-04-19T16:53:30.957Z,100631.25
2023-04-19T16:56:34.980Z,100630.84
2023-04-19T16:59:37.773Z,100633.13
2023-04-19T17:06:00.827Z,100644.00
2023-04-19T17:09:09.369Z,100645.88
2023-04-19T17:12:12.923Z,100650.88
2023-04-19T17:15:16.652Z,100634.75
2023-04-19T17:18:19.122Z,100641.25
2023-04-19T17:21:21.424Z,100642.91
2023-04-19T17:24:31.205Z,100639.16
2023-04-19T17:27:37.226Z,100627.03
2023-04-19T17:30:40.624Z,100641.84
2023-04-19T17:33:42.837Z,100641.44
2023-04-19T17:36:45.608Z,100641.63
2023-04-19T17:39:47.998Z,100655.00
2023-04-19T17:42:51.088Z,100653.13
2023-04-19T17:45:53.862Z,100659.59
2023-04-19T17:48:56.152Z,100651.22
2023-04-19T17:51:58.426Z,100665.00
2023-04-19T17:55:02.014Z,100655.34
2023-04-19T17:58:04.093Z,100646.81
2023-04-19T18:01:16.669Z,100662.69
2023-04-19T18:04:20.273Z,100657.44
2023-04-19T18:07:25.353Z,100668.47
2023-04-19T18:10:27.838Z,100670.59
2023-04-19T18:13:30.066Z,100676.38
2023-04-19T18:16:44.754Z,100671.38
2023-04-19T18:19:46.956Z,100679.75
2023-04-19T18:22:50.922Z,100672.19
2023-04-19T18:25:54.540Z,100676.31
2023-04-19T18:28:56.787Z,100678.03
2023-04-19T18:31:59.001Z,100683.63
2023-04-19T18:35:03.266Z,100683.63
2023-04-19T18:38:06.286Z,100673.59
2023-04-19T18:41:10.643Z,100678.38
2023-04-19T18:44:38.981Z,100689.50
2023-04-19T18:47:36.047Z,100686.13
2023-04-19T18:50:38.528Z,100687.59
2023-04-19T18:53:41.616Z,100677.75
2023-04-19T18:59:50.391Z,100689.44
2023-04-19T19:02:53.104Z,100682.75
2023-04-19T19:05:58.646Z,100678.34
2023-04-19T19:09:01.347Z,100676.47
2023-04-19T19:12:07.170Z,100673.72
2023-04-19T19:15:16.080Z,100673.06
2023-04-19T19:18:19.373Z,100664.91
2023-04-19T19:21:21.918Z,100664.69
2023-04-19T19:24:25.512Z,100668.19
2023-04-19T19:27:28.005Z,100672.81
2023-04-19T19:30:33.912Z,100664.63
2023-04-19T19:33:39.110Z,100667.94
2023-04-19T19:36:59.960Z,100666.94
2023-04-19T19:40:22.659Z,100663.59
2023-04-19T19:43:54.065Z,100656.09
2023-04-19T19:46:58.495Z,100651.91
2023-04-19T19:53:06.168Z,100654.59
2023-04-19T19:56:16.507Z,100663.59
2023-04-19T19:59:29.082Z,100654.72
2023-04-19T20:02:34.136Z,100658.75
2023-04-19T20:05:37.716Z,100655.31
2023-04-19T20:08:45.168Z,100663.88
2023-04-19T20:11:47.811Z,100661.81
2023-04-19T20:14:49.964Z,100662.16
2023-04-19T20:17:52.111Z,100658.66
2023-04-19T20:20:54.253Z,100662.59
2023-04-19T20:23:56.302Z,100661.09
2023-04-19T20:26:58.623Z,100666.53
2023-04-19T20:30:04.172Z,100669.47
2023-04-19T20:33:07.524Z,100670.28
2023-04-19T20:36:09.937Z,100660.50
2023-04-19T20:39:13.450Z,100661.97
2023-04-19T20:42:15.679Z,100663.44
2023-04-19T20:45:17.786Z,100667.16
2023-04-19T20:48:20.154Z,100663.81
2023-04-19T20:51:22.438Z,100670.28
2023-04-19T20:54:41.624Z,100667.56
2023-04-19T20:57:43.704Z,100666.78
2023-04-19T21:00:45.807Z,100656.25
2023-04-19T21:03:48.110Z,100650.78
2023-04-19T21:06:53.055Z,100655.81
2023-04-19T21:09:58.112Z,100659.75
2023-04-19T21:13:04.052Z,100665.38
2023-04-19T21:16:22.979Z,100666.00
2023-04-19T21:19:25.907Z,100654.53
2023-04-19T21:22:29.993Z,100658.09
2023-04-19T21:25:34.477Z,100653.50
2023-04-19T21:28:36.660Z,100661.44
2023-04-19T21:31:38.856Z,100661.88
2023-04-19T21:34:41.437Z,100658.16
2023-04-19T21:37:45.833Z,100656.72
2023-04-19T21:40:51.682Z,100660.50
2023-04-19T21:43:53.966Z,100668.81
2023-04-19T21:46:57.959Z,100653.38
2023-04-19T21:50:00.204Z,100659.63
2023-04-19T21:53:02.230Z,100660.63
2023-04-19T21:56:06.227Z,100659.34
2023-04-19T21:59:08.314Z,100661.22
2023-04-19T22:02:11.056Z,100664.59
2023-04-19T22:05:14.539Z,100654.16
2023-04-19T22:08:18.213Z,100653.06
2023-04-19T22:11:21.260Z,100651.81
2023-04-19T22:14:23.470Z,100648.84
2023-04-19T22:17:26.394Z,100650.16
2023-04-19T22:20:31.516Z,100661.00
2023-04-19T22:23:33.603Z,100661.44
2023-04-19T22:26:37.647Z,100643.00
2023-04-19T22:29:42.641Z,100646.59
2023-04-19T22:32:44.818Z,100660.13
2023-04-19T22:35:47.261Z,100658.91
2023-04-19T22:38:49.649Z,100651.38
2023-04-19T22:41:52.685Z,100653.50
2023-04-19T22:44:56.354Z,100657.25
2023-04-19T22:47:58.575Z,100652.00
2023-04-19T22:51:02.414Z,100655.16
2023-04-19T22:54:05.036Z,100649.91
2023-04-19T22:57:08.870Z,100652.81
2023-04-19T23:00:11.757Z,100649.03
2023-04-19T23:03:14.201Z,100651.94
2023-04-19T23:06:18.090Z,100655.28
2023-04-19T23:09:20.283Z,100648.19
2023-04-19T23:12:23.069Z,100650.91
2023-04-19T23:15:29.659Z,100647.13
2023-04-19T23:18:32.548Z,100635.47
2023-04-19T23:21:38.290Z,100636.13
2023-04-19T23:24:40.661Z,100642.16
2023-04-19T23:27:44.640Z,100628.78
2023-04-19T23:30:46.833Z,100627.72
2023-04-19T23:33:50.600Z,100627.34
2023-04-19T23:36:53.915Z,100631.09
2023-04-19T23:39:57.030Z,100638.44
2023-04-19T23:43:01.064Z,100623.94
2023-04-19T23:46:05.312Z,100637.13
2023-04-19T23:49:09.224Z,100628.97
2023-04-19T23:52:11.724Z,100627.22
2023-04-19T23:55:13.893Z,100631.38
2023-04-19T23:58:16.001Z,100628.94
